sensor_id;sensor_type;location;lat;lon;timestamp;temperature;humidity
16136;DHT22;8173;48.354;9.248;2022-07-05T00:01:23;12.20;99.90
16136;DHT22;8173;48.354;9.248;2022-07-05T00:03:50;12.30;99.90
16136;DHT22;8173;48.354;9.248;2022-07-05T00:06:18;12.30;99.90
16136;DHT22;8173;48.354;9.248;2022-07-05T00:08:45;13.20;99.90
16136;DHT22;8173;48.354;9.248;2022-07-05T00:11:12;12.20;99.90
16136;DHT22;8173;48.354;9.248;2022-07-05T00:13:38;12.20;99.90
16136;DHT22;8173;48.354;9.248;2022-07-05T00:16:05;12.20;99.90
16136;DHT22;8173;48.354;9.248;2022-07-05T00:18:32;12.10;99.90
16136;DHT22;8173;48.354;9.248;2022-07-05T00:20:59;12.00;99.90
16136;DHT22;8173;48.354;9.248;2022-07-05T00:23:27;12.10;99.90
16136;DHT22;8173;48.354;9.248;2022-07-05T00:25:54;12.20;99.90
16136;DHT22;8173;48.354;9.248;2022-07-05T00:28:21;12.10;99.90
16136;DHT22;8173;48.354;9.248;2022-07-05T00:30:48;12.10;99.90
16136;DHT22;8173;48.354;9.248;2022-07-05T00:33:14;12.10;99.90
16136;DHT22;8173;48.354;9.248;2022-07-05T00:38:08;12.00;99.90
16136;DHT22;8173;48.354;9.248;2022-07-05T00:40:36;12.00;99.90
16136;DHT22;8173;48.354;9.248;2022-07-05T00:43:03;12.00;99.90
16136;DHT22;8173;48.354;9.248;2022-07-05T00:45:30;12.00;99.90
16136;DHT22;8173;48.354;9.248;2022-07-05T00:47:57;12.00;99.90
16136;DHT22;8173;48.354;9.248;2022-07-05T00:50:24;12.00;99.90
16136;DHT22;8173;48.354;9.248;2022-07-05T00:52:54;11.90;99.90
16136;DHT22;8173;48.354;9.248;2022-07-05T00:55:21;12.00;99.90
16136;DHT22;8173;48.354;9.248;2022-07-05T00:57:50;11.90;99.90
16136;DHT22;8173;48.354;9.248;2022-07-05T01:00:17;11.90;99.90
16136;DHT22;8173;48.354;9.248;2022-07-05T01:02:44;11.90;99.90
16136;DHT22;8173;48.354;9.248;2022-07-05T01:05:11;11.80;99.90
16136;DHT22;8173;48.354;9.248;2022-07-05T01:07:38;11.80;99.90
16136;DHT22;8173;48.354;9.248;2022-07-05T01:10:06;11.80;99.90
16136;DHT22;8173;48.354;9.248;2022-07-05T01:12:33;11.80;99.90
16136;DHT22;8173;48.354;9.248;2022-07-05T01:15:01;11.90;99.90
16136;DHT22;8173;48.354;9.248;2022-07-05T01:17:28;11.90;99.90
16136;DHT22;8173;48.354;9.248;2022-07-05T01:19:55;11.90;99.90
16136;DHT22;8173;48.354;9.248;2022-07-05T01:22:25;11.90;99.90
16136;DHT22;8173;48.354;9.248;2022-07-05T01:24:54;11.70;99.90
16136;DHT22;8173;48.354;9.248;2022-07-05T01:27:21;11.70;99.90
16136;DHT22;8173;48.354;9.248;2022-07-05T01:29:48;11.60;99.90
16136;DHT22;8173;48.354;9.248;2022-07-05T01:32:15;11.60;99.90
16136;DHT22;8173;48.354;9.248;2022-07-05T01:34:42;11.60;99.90
16136;DHT22;8173;48.354;9.248;2022-07-05T01:37:10;11.50;99.90
16136;DHT22;8173;48.354;9.248;2022-07-05T01:39:37;11.50;99.90
16136;DHT22;8173;48.354;9.248;2022-07-05T01:42:06;11.40;99.90
16136;DHT22;8173;48.354;9.248;2022-07-05T01:47:04;11.30;99.90
16136;DHT22;8173;48.354;9.248;2022-07-05T01:49:34;11.40;99.90
16136;DHT22;8173;48.354;9.248;2022-07-05T01:52:07;11.30;99.90
16136;DHT22;8173;48.354;9.248;2022-07-05T01:54:35;11.40;99.90
16136;DHT22;8173;48.354;9.248;2022-07-05T01:57:02;11.30;99.90
16136;DHT22;8173;48.354;9.248;2022-07-05T01:59:31;11.40;99.90
16136;DHT22;8173;48.354;9.248;2022-07-05T02:01:58;11.50;99.90
16136;DHT22;8173;48.354;9.248;2022-07-05T02:04:25;11.40;99.90
16136;DHT22;8173;48.354;9.248;2022-07-05T02:06:52;11.40;99.90
16136;DHT22;8173;48.354;9.248;2022-07-05T02:09:19;11.30;99.90
16136;DHT22;8173;48.354;9.248;2022-07-05T02:11:46;11.30;99.90
16136;DHT22;8173;48.354;9.248;2022-07-05T02:14:13;11.30;99.90
16136;DHT22;8173;48.354;9.248;2022-07-05T02:16:41;11.30;99.90
16136;DHT22;8173;48.354;9.248;2022-07-05T02:19:08;11.20;99.90
16136;DHT22;8173;48.354;9.248;2022-07-05T02:21:35;11.30;99.90
16136;DHT22;8173;48.354;9.248;2022-07-05T02:24:01;11.30;99.90
16136;DHT22;8173;48.354;9.248;2022-07-05T02:26:28;11.30;99.90
16136;DHT22;8173;48.354;9.248;2022-07-05T02:28:55;11.20;99.90
16136;DHT22;8173;48.354;9.248;2022-07-05T02:31:22;11.20;99.90
16136;DHT22;8173;48.354;9.248;2022-07-05T02:33:50;11.30;99.90
16136;DHT22;8173;48.354;9.248;2022-07-05T02:36:18;11.30;99.90
16136;DHT22;8173;48.354;9.248;2022-07-05T02:38:45;11.30;99.90
16136;DHT22;8173;48.354;9.248;2022-07-05T02:41:12;11.20;99.90
16136;DHT22;8173;48.354;9.248;2022-07-05T02:43:39;11.20;99.90
16136;DHT22;8173;48.354;9.248;2022-07-05T02:46:07;11.20;99.90
16136;DHT22;8173;48.354;9.248;2022-07-05T02:48:35;11.10;99.90
16136;DHT22;8173;48.354;9.248;2022-07-05T02:51:04;11.10;99.90
16136;DHT22;8173;48.354;9.248;2022-07-05T02:53:31;11.00;99.90
16136;DHT22;8173;48.354;9.248;2022-07-05T02:55:59;10.80;99.90
16136;DHT22;8173;48.354;9.248;2022-07-05T02:58:26;10.80;99.90
16136;DHT22;8173;48.354;9.248;2022-07-05T03:00:53;10.70;99.90
16136;DHT22;8173;48.354;9.248;2022-07-05T03:03:20;10.70;99.90
16136;DHT22;8173;48.354;9.248;2022-07-05T03:05:47;10.70;99.90
16136;DHT22;8173;48.354;9.248;2022-07-05T03:08:15;10.60;99.90
16136;DHT22;8173;48.354;9.248;2022-07-05T03:10:42;10.70;99.90
16136;DHT22;8173;48.354;9.248;2022-07-05T03:13:08;10.70;99.90
16136;DHT22;8173;48.354;9.248;2022-07-05T03:15:35;10.60;99.90
16136;DHT22;8173;48.354;9.248;2022-07-05T03:18:02;10.70;99.90
16136;DHT22;8173;48.354;9.248;2022-07-05T03:20:29;10.70;99.90
16136;DHT22;8173;48.354;9.248;2022-07-05T03:22:56;10.60;99.90
16136;DHT22;8173;48.354;9.248;2022-07-05T03:25:24;10.60;99.90
16136;DHT22;8173;48.354;9.248;2022-07-05T03:27:51;10.50;99.90
16136;DHT22;8173;48.354;9.248;2022-07-05T03:30:17;10.40;99.90
16136;DHT22;8173;48.354;9.248;2022-07-05T03:32:44;10.40;99.90
16136;DHT22;8173;48.354;9.248;2022-07-05T03:35:11;10.40;99.90
16136;DHT22;8173;48.354;9.248;2022-07-05T03:37:38;10.50;99.90
16136;DHT22;8173;48.354;9.248;2022-07-05T03:40:06;10.60;99.90
16136;DHT22;8173;48.354;9.248;2022-07-05T03:42:34;10.60;99.90
16136;DHT22;8173;48.354;9.248;2022-07-05T03:45:01;10.60;99.90
16136;DHT22;8173;48.354;9.248;2022-07-05T03:47:28;10.50;99.90
16136;DHT22;8173;48.354;9.248;2022-07-05T03:49:54;10.40;99.90
16136;DHT22;8173;48.354;9.248;2022-07-05T03:52:21;10.50;99.90
16136;DHT22;8173;48.354;9.248;2022-07-05T03:54:48;10.30;99.90
16136;DHT22;8173;48.354;9.248;2022-07-05T03:57:15;10.30;99.90
16136;DHT22;8173;48.354;9.248;2022-07-05T03:59:43;10.30;99.90
16136;DHT22;8173;48.354;9.248;2022-07-05T04:02:10;10.30;99.90
16136;DHT22;8173;48.354;9.248;2022-07-05T04:04:37;10.30;99.90
16136;DHT22;8173;48.354;9.248;2022-07-05T04:07:04;10.30;99.90
16136;DHT22;8173;48.354;9.248;2022-07-05T04:09:31;10.40;99.90
16136;DHT22;8173;48.354;9.248;2022-07-05T04:11:57;10.50;99.90
16136;DHT22;8173;48.354;9.248;2022-07-05T04:14:24;10.50;99.90
16136;DHT22;8173;48.354;9.248;2022-07-05T04:16:52;10.60;99.90
16136;DHT22;8173;48.354;9.248;2022-07-05T04:19:19;10.80;99.90
16136;DHT22;8173;48.354;9.248;2022-07-05T04:21:46;10.90;99.90
16136;DHT22;8173;48.354;9.248;2022-07-05T04:24:13;11.00;99.90
16136;DHT22;8173;48.354;9.248;2022-07-05T04:26:39;11.00;99.90
16136;DHT22;8173;48.354;9.248;2022-07-05T04:29:06;11.00;99.90
16136;DHT22;8173;48.354;9.248;2022-07-05T04:31:33;10.90;99.90
16136;DHT22;8173;48.354;9.248;2022-07-05T04:34:01;11.00;99.90
16136;DHT22;8173;48.354;9.248;2022-07-05T04:36:28;11.00;99.90
16136;DHT22;8173;48.354;9.248;2022-07-05T04:38:55;11.00;99.90
16136;DHT22;8173;48.354;9.248;2022-07-05T04:41:22;11.10;99.90
16136;DHT22;8173;48.354;9.248;2022-07-05T04:43:49;11.00;99.90
16136;DHT22;8173;48.354;9.248;2022-07-05T04:46:15;11.20;99.90
16136;DHT22;8173;48.354;9.248;2022-07-05T04:48:42;11.40;99.90
16136;DHT22;8173;48.354;9.248;2022-07-05T04:51:10;11.50;99.90
16136;DHT22;8173;48.354;9.248;2022-07-05T04:53:37;12.00;99.90
16136;DHT22;8173;48.354;9.248;2022-07-05T04:56:04;12.70;99.90
16136;DHT22;8173;48.354;9.248;2022-07-05T04:58:31;13.40;99.90
16136;DHT22;8173;48.354;9.248;2022-07-05T05:00:58;14.10;99.90
16136;DHT22;8173;48.354;9.248;2022-07-05T05:03:25;14.70;99.90
16136;DHT22;8173;48.354;9.248;2022-07-05T05:05:52;15.20;99.90
16136;DHT22;8173;48.354;9.248;2022-07-05T05:08:20;15.90;99.90
16136;DHT22;8173;48.354;9.248;2022-07-05T05:10:47;16.80;99.90
16136;DHT22;8173;48.354;9.248;2022-07-05T05:13:14;17.30;99.90
16136;DHT22;8173;48.354;9.248;2022-07-05T05:15:41;17.50;99.90
16136;DHT22;8173;48.354;9.248;2022-07-05T05:18:07;17.40;99.90
16136;DHT22;8173;48.354;9.248;2022-07-05T05:20:34;17.70;99.90
16136;DHT22;8173;48.354;9.248;2022-07-05T05:23:01;17.80;99.90
16136;DHT22;8173;48.354;9.248;2022-07-05T05:25:29;18.20;99.90
16136;DHT22;8173;48.354;9.248;2022-07-05T05:27:56;18.10;99.90
16136;DHT22;8173;48.354;9.248;2022-07-05T05:30:23;18.20;99.90
16136;DHT22;8173;48.354;9.248;2022-07-05T05:32:50;18.30;99.90
16136;DHT22;8173;48.354;9.248;2022-07-05T05:35:17;18.30;99.90
16136;DHT22;8173;48.354;9.248;2022-07-05T05:37:47;18.40;99.90
16136;DHT22;8173;48.354;9.248;2022-07-05T05:40:15;18.70;99.90
16136;DHT22;8173;48.354;9.248;2022-07-05T05:42:43;18.90;99.90
16136;DHT22;8173;48.354;9.248;2022-07-05T05:45:10;19.40;99.90
16136;DHT22;8173;48.354;9.248;2022-07-05T05:47:48;19.50;99.90
16136;DHT22;8173;48.354;9.248;2022-07-05T05:50:18;19.70;99.90
16136;DHT22;8173;48.354;9.248;2022-07-05T05:52:45;20.10;99.90
16136;DHT22;8173;48.354;9.248;2022-07-05T05:55:12;20.10;99.90
16136;DHT22;8173;48.354;9.248;2022-07-05T05:57:39;20.10;99.90
16136;DHT22;8173;48.354;9.248;2022-07-05T06:00:09;19.90;99.90
16136;DHT22;8173;48.354;9.248;2022-07-05T06:02:36;20.00;99.90
16136;DHT22;8173;48.354;9.248;2022-07-05T06:05:03;20.40;99.90
16136;DHT22;8173;48.354;9.248;2022-07-05T06:07:30;20.50;99.90
16136;DHT22;8173;48.354;9.248;2022-07-05T06:09:57;20.80;99.90
16136;DHT22;8173;48.354;9.248;2022-07-05T06:12:23;21.00;99.90
16136;DHT22;8173;48.354;9.248;2022-07-05T06:14:50;21.40;99.90
16136;DHT22;8173;48.354;9.248;2022-07-05T06:17:18;21.40;99.90
16136;DHT22;8173;48.354;9.248;2022-07-05T06:19:45;21.60;99.90
16136;DHT22;8173;48.354;9.248;2022-07-05T06:22:12;21.80;99.90
16136;DHT22;8173;48.354;9.248;2022-07-05T06:24:38;22.30;99.90
16136;DHT22;8173;48.354;9.248;2022-07-05T06:27:05;22.20;99.90
16136;DHT22;8173;48.354;9.248;2022-07-05T06:29:32;22.40;99.90
16136;DHT22;8173;48.354;9.248;2022-07-05T06:31:59;22.70;99.90
16136;DHT22;8173;48.354;9.248;2022-07-05T06:34:27;22.80;99.90
16136;DHT22;8173;48.354;9.248;2022-07-05T06:39:21;23.20;99.90
16136;DHT22;8173;48.354;9.248;2022-07-05T06:41:48;23.40;99.90
16136;DHT22;8173;48.354;9.248;2022-07-05T06:44:15;23.60;99.90
16136;DHT22;8173;48.354;9.248;2022-07-05T06:46:41;23.60;99.90
16136;DHT22;8173;48.354;9.248;2022-07-05T06:49:08;23.70;99.90
16136;DHT22;8173;48.354;9.248;2022-07-05T06:51:36;23.80;99.90
16136;DHT22;8173;48.354;9.248;2022-07-05T06:54:03;23.90;99.90
16136;DHT22;8173;48.354;9.248;2022-07-05T06:56:30;24.20;99.90
16136;DHT22;8173;48.354;9.248;2022-07-05T06:58:57;24.30;99.90
16136;DHT22;8173;48.354;9.248;2022-07-05T07:01:23;24.30;99.90
16136;DHT22;8173;48.354;9.248;2022-07-05T07:03:50;24.40;99.90
16136;DHT22;8173;48.354;9.248;2022-07-05T07:06:17;24.60;99.90
16136;DHT22;8173;48.354;9.248;2022-07-05T07:08:46;24.90;99.90
16136;DHT22;8173;48.354;9.248;2022-07-05T07:11:30;25.30;99.90
16136;DHT22;8173;48.354;9.248;2022-07-05T07:13:57;26.00;99.90
16136;DHT22;8173;48.354;9.248;2022-07-05T07:16:24;26.50;99.90
16136;DHT22;8173;48.354;9.248;2022-07-05T07:18:51;26.90;99.90
16136;DHT22;8173;48.354;9.248;2022-07-05T07:21:18;27.20;96.30
16136;DHT22;8173;48.354;9.248;2022-07-05T07:23:46;27.30;95.50
16136;DHT22;8173;48.354;9.248;2022-07-05T07:26:12;27.40;94.80
16136;DHT22;8173;48.354;9.248;2022-07-05T07:28:40;27.40;94.10
16136;DHT22;8173;48.354;9.248;2022-07-05T07:31:07;27.70;93.90
16136;DHT22;8173;48.354;9.248;2022-07-05T07:33:34;28.10;90.50
16136;DHT22;8173;48.354;9.248;2022-07-05T07:36:01;27.80;88.40
16136;DHT22;8173;48.354;9.248;2022-07-05T07:38:28;27.80;84.80
16136;DHT22;8173;48.354;9.248;2022-07-05T07:40:56;27.70;85.50
16136;DHT22;8173;48.354;9.248;2022-07-05T07:43:23;27.90;89.40
16136;DHT22;8173;48.354;9.248;2022-07-05T07:45:49;27.80;88.00
16136;DHT22;8173;48.354;9.248;2022-07-05T07:48:16;27.60;87.90
16136;DHT22;8173;48.354;9.248;2022-07-05T07:50:44;27.70;90.50
16136;DHT22;8173;48.354;9.248;2022-07-05T07:53:10;28.10;89.10
16136;DHT22;8173;48.354;9.248;2022-07-05T07:55:37;27.80;87.30
16136;DHT22;8173;48.354;9.248;2022-07-05T07:58:05;27.60;87.40
16136;DHT22;8173;48.354;9.248;2022-07-05T08:00:32;27.10;83.80
16136;DHT22;8173;48.354;9.248;2022-07-05T08:02:59;26.70;87.80
16136;DHT22;8173;48.354;9.248;2022-07-05T08:05:26;26.90;81.40
16136;DHT22;8173;48.354;9.248;2022-07-05T08:07:53;27.40;83.30
16136;DHT22;8173;48.354;9.248;2022-07-05T08:10:19;27.60;83.70
16136;DHT22;8173;48.354;9.248;2022-07-05T08:12:46;27.90;86.20
16136;DHT22;8173;48.354;9.248;2022-07-05T08:15:14;28.20;78.00
16136;DHT22;8173;48.354;9.248;2022-07-05T08:17:41;28.20;79.50
16136;DHT22;8173;48.354;9.248;2022-07-05T08:20:28;28.00;79.50
16136;DHT22;8173;48.354;9.248;2022-07-05T08:23:23;27.80;81.10
16136;DHT22;8173;48.354;9.248;2022-07-05T08:25:50;27.30;81.50
16136;DHT22;8173;48.354;9.248;2022-07-05T08:28:17;27.10;80.00
16136;DHT22;8173;48.354;9.248;2022-07-05T08:30:45;26.90;78.90
16136;DHT22;8173;48.354;9.248;2022-07-05T08:33:12;26.40;80.30
16136;DHT22;8173;48.354;9.248;2022-07-05T08:35:38;26.80;79.50
16136;DHT22;8173;48.354;9.248;2022-07-05T08:38:05;27.20;83.40
16136;DHT22;8173;48.354;9.248;2022-07-05T08:40:36;27.60;85.70
16136;DHT22;8173;48.354;9.248;2022-07-05T08:43:04;27.40;82.80
16136;DHT22;8173;48.354;9.248;2022-07-05T08:45:32;27.20;75.60
16136;DHT22;8173;48.354;9.248;2022-07-05T08:48:02;27.60;82.30
16136;DHT22;8173;48.354;9.248;2022-07-05T08:50:30;27.60;77.80
16136;DHT22;8173;48.354;9.248;2022-07-05T08:52:59;27.10;78.90
16136;DHT22;8173;48.354;9.248;2022-07-05T08:55:26;27.30;76.70
16136;DHT22;8173;48.354;9.248;2022-07-05T08:57:53;27.30;76.00
16136;DHT22;8173;48.354;9.248;2022-07-05T09:00:20;26.90;75.60
16136;DHT22;8173;48.354;9.248;2022-07-05T09:02:47;27.00;76.40
16136;DHT22;8173;48.354;9.248;2022-07-05T09:05:18;26.90;77.60
16136;DHT22;8173;48.354;9.248;2022-07-05T09:07:57;27.00;79.40
16136;DHT22;8173;48.354;9.248;2022-07-05T09:10:26;27.20;81.00
16136;DHT22;8173;48.354;9.248;2022-07-05T09:12:54;27.10;79.90
16136;DHT22;8173;48.354;9.248;2022-07-05T09:15:21;27.40;76.10
16136;DHT22;8173;48.354;9.248;2022-07-05T09:17:48;27.70;77.70
16136;DHT22;8173;48.354;9.248;2022-07-05T09:20:17;28.10;80.00
16136;DHT22;8173;48.354;9.248;2022-07-05T09:22:46;28.10;76.00
16136;DHT22;8173;48.354;9.248;2022-07-05T09:25:15;26.90;76.10
16136;DHT22;8173;48.354;9.248;2022-07-05T09:27:47;26.90;76.10
16136;DHT22;8173;48.354;9.248;2022-07-05T09:30:27;26.80;76.60
16136;DHT22;8173;48.354;9.248;2022-07-05T09:33:08;26.70;75.70
16136;DHT22;8173;48.354;9.248;2022-07-05T09:35:37;26.60;79.70
16136;DHT22;8173;48.354;9.248;2022-07-05T09:38:05;27.60;82.20
16136;DHT22;8173;48.354;9.248;2022-07-05T09:40:33;26.60;80.70
16136;DHT22;8173;48.354;9.248;2022-07-05T09:43:12;26.40;81.60
16136;DHT22;8173;48.354;9.248;2022-07-05T09:45:40;26.60;77.70
16136;DHT22;8173;48.354;9.248;2022-07-05T09:48:07;26.70;78.50
16136;DHT22;8173;48.354;9.248;2022-07-05T09:50:36;26.80;79.40
16136;DHT22;8173;48.354;9.248;2022-07-05T09:53:03;26.00;78.30
16136;DHT22;8173;48.354;9.248;2022-07-05T09:55:30;25.90;74.20
16136;DHT22;8173;48.354;9.248;2022-07-05T09:57:56;25.90;74.50
16136;DHT22;8173;48.354;9.248;2022-07-05T10:00:23;24.90;70.70
16136;DHT22;8173;48.354;9.248;2022-07-05T10:02:52;24.10;76.80
16136;DHT22;8173;48.354;9.248;2022-07-05T10:05:20;24.20;80.80
16136;DHT22;8173;48.354;9.248;2022-07-05T10:07:49;24.30;83.90
16136;DHT22;8173;48.354;9.248;2022-07-05T10:10:18;24.70;78.20
16136;DHT22;8173;48.354;9.248;2022-07-05T10:12:46;24.80;76.20
16136;DHT22;8173;48.354;9.248;2022-07-05T10:15:14;25.10;76.30
16136;DHT22;8173;48.354;9.248;2022-07-05T10:17:45;25.20;78.40
16136;DHT22;8173;48.354;9.248;2022-07-05T10:20:17;25.70;78.10
16136;DHT22;8173;48.354;9.248;2022-07-05T10:22:44;25.20;78.70
16136;DHT22;8173;48.354;9.248;2022-07-05T10:25:13;25.20;84.20
16136;DHT22;8173;48.354;9.248;2022-07-05T10:27:40;25.30;84.70
16136;DHT22;8173;48.354;9.248;2022-07-05T10:30:09;25.80;80.60
16136;DHT22;8173;48.354;9.248;2022-07-05T10:32:36;25.90;79.60
16136;DHT22;8173;48.354;9.248;2022-07-05T10:35:05;25.60;78.40
16136;DHT22;8173;48.354;9.248;2022-07-05T10:37:33;25.60;79.30
16136;DHT22;8173;48.354;9.248;2022-07-05T10:40:02;25.40;77.20
16136;DHT22;8173;48.354;9.248;2022-07-05T10:42:36;25.50;81.50
16136;DHT22;8173;48.354;9.248;2022-07-05T10:45:22;25.10;76.70
16136;DHT22;8173;48.354;9.248;2022-07-05T10:48:17;25.00;77.20
16136;DHT22;8173;48.354;9.248;2022-07-05T10:50:46;24.20;78.40
16136;DHT22;8173;48.354;9.248;2022-07-05T10:53:13;24.20;80.40
16136;DHT22;8173;48.354;9.248;2022-07-05T10:55:48;25.50;83.80
16136;DHT22;8173;48.354;9.248;2022-07-05T10:58:24;25.70;82.10
16136;DHT22;8173;48.354;9.248;2022-07-05T11:04:11;25.30;78.50
16136;DHT22;8173;48.354;9.248;2022-07-05T11:06:41;24.20;82.90
16136;DHT22;8173;48.354;9.248;2022-07-05T11:09:15;24.20;83.70
16136;DHT22;8173;48.354;9.248;2022-07-05T11:11:44;24.00;78.30
16136;DHT22;8173;48.354;9.248;2022-07-05T11:14:39;24.10;81.20
16136;DHT22;8173;48.354;9.248;2022-07-05T11:17:22;25.00;79.50
16136;DHT22;8173;48.354;9.248;2022-07-05T11:20:12;25.40;82.60
16136;DHT22;8173;48.354;9.248;2022-07-05T11:22:41;26.30;82.30
16136;DHT22;8173;48.354;9.248;2022-07-05T11:25:28;26.30;76.60
16136;DHT22;8173;48.354;9.248;2022-07-05T11:30:57;26.20;74.30
16136;DHT22;8173;48.354;9.248;2022-07-05T11:33:26;26.60;78.20
16136;DHT22;8173;48.354;9.248;2022-07-05T11:35:55;26.80;75.60
16136;DHT22;8173;48.354;9.248;2022-07-05T11:38:22;26.60;78.00
16136;DHT22;8173;48.354;9.248;2022-07-05T11:40:49;26.50;81.10
16136;DHT22;8173;48.354;9.248;2022-07-05T11:43:25;26.10;77.80
16136;DHT22;8173;48.354;9.248;2022-07-05T11:45:57;26.60;82.50
16136;DHT22;8173;48.354;9.248;2022-07-05T11:48:25;26.60;79.50
16136;DHT22;8173;48.354;9.248;2022-07-05T11:50:52;26.50;81.30
16136;DHT22;8173;48.354;9.248;2022-07-05T11:53:26;26.90;80.60
16136;DHT22;8173;48.354;9.248;2022-07-05T11:55:54;26.70;78.90
16136;DHT22;8173;48.354;9.248;2022-07-05T11:58:22;26.60;78.50
16136;DHT22;8173;48.354;9.248;2022-07-05T12:00:55;25.80;76.40
16136;DHT22;8173;48.354;9.248;2022-07-05T12:03:22;25.50;82.50
16136;DHT22;8173;48.354;9.248;2022-07-05T12:05:49;25.60;82.00
16136;DHT22;8173;48.354;9.248;2022-07-05T12:08:20;26.20;82.10
16136;DHT22;8173;48.354;9.248;2022-07-05T12:10:47;26.90;81.10
16136;DHT22;8173;48.354;9.248;2022-07-05T12:13:34;27.00;79.60
16136;DHT22;8173;48.354;9.248;2022-07-05T12:16:10;27.50;73.80
16136;DHT22;8173;48.354;9.248;2022-07-05T12:18:46;27.60;78.10
16136;DHT22;8173;48.354;9.248;2022-07-05T12:21:13;27.60;79.90
16136;DHT22;8173;48.354;9.248;2022-07-05T12:23:41;27.20;79.40
16136;DHT22;8173;48.354;9.248;2022-07-05T12:26:08;26.90;76.40
16136;DHT22;8173;48.354;9.248;2022-07-05T12:28:35;27.10;82.80
16136;DHT22;8173;48.354;9.248;2022-07-05T12:31:18;26.80;77.50
16136;DHT22;8173;48.354;9.248;2022-07-05T12:33:46;25.20;75.00
16136;DHT22;8173;48.354;9.248;2022-07-05T12:36:13;25.20;78.30
16136;DHT22;8173;48.354;9.248;2022-07-05T12:38:40;25.60;84.10
16136;DHT22;8173;48.354;9.248;2022-07-05T12:41:08;26.30;77.40
16136;DHT22;8173;48.354;9.248;2022-07-05T12:43:52;26.00;77.30
16136;DHT22;8173;48.354;9.248;2022-07-05T12:46:34;26.00;78.20
16136;DHT22;8173;48.354;9.248;2022-07-05T12:49:01;25.90;75.60
16136;DHT22;8173;48.354;9.248;2022-07-05T12:51:33;24.80;75.70
16136;DHT22;8173;48.354;9.248;2022-07-05T12:54:00;24.50;83.80
16136;DHT22;8173;48.354;9.248;2022-07-05T12:56:47;25.00;82.60
16136;DHT22;8173;48.354;9.248;2022-07-05T12:59:32;25.30;84.50
16136;DHT22;8173;48.354;9.248;2022-07-05T13:02:01;26.10;84.80
16136;DHT22;8173;48.354;9.248;2022-07-05T13:04:28;26.90;81.90
16136;DHT22;8173;48.354;9.248;2022-07-05T13:06:56;26.90;78.00
16136;DHT22;8173;48.354;9.248;2022-07-05T13:09:31;26.50;78.00
16136;DHT22;8173;48.354;9.248;2022-07-05T13:12:09;26.50;75.90
16136;DHT22;8173;48.354;9.248;2022-07-05T13:14:37;26.30;75.90
16136;DHT22;8173;48.354;9.248;2022-07-05T13:17:06;26.90;76.50
16136;DHT22;8173;48.354;9.248;2022-07-05T13:19:34;27.40;77.00
16136;DHT22;8173;48.354;9.248;2022-07-05T13:22:01;27.80;77.30
16136;DHT22;8173;48.354;9.248;2022-07-05T13:24:28;27.60;73.20
16136;DHT22;8173;48.354;9.248;2022-07-05T13:26:55;26.20;73.00
16136;DHT22;8173;48.354;9.248;2022-07-05T13:29:21;25.60;79.70
16136;DHT22;8173;48.354;9.248;2022-07-05T13:31:48;24.70;75.20
16136;DHT22;8173;48.354;9.248;2022-07-05T13:34:17;24.70;83.10
16136;DHT22;8173;48.354;9.248;2022-07-05T13:36:44;25.30;83.30
16136;DHT22;8173;48.354;9.248;2022-07-05T13:39:11;25.70;83.30
16136;DHT22;8173;48.354;9.248;2022-07-05T13:41:38;25.60;76.50
16136;DHT22;8173;48.354;9.248;2022-07-05T13:44:04;25.60;82.60
16136;DHT22;8173;48.354;9.248;2022-07-05T13:46:31;26.30;78.90
16136;DHT22;8173;48.354;9.248;2022-07-05T13:48:58;26.30;80.30
16136;DHT22;8173;48.354;9.248;2022-07-05T13:51:26;27.60;76.00
16136;DHT22;8173;48.354;9.248;2022-07-05T13:53:53;26.30;78.40
16136;DHT22;8173;48.354;9.248;2022-07-05T13:56:20;26.00;78.00
16136;DHT22;8173;48.354;9.248;2022-07-05T13:58:48;24.60;77.40
16136;DHT22;8173;48.354;9.248;2022-07-05T14:01:15;25.50;75.00
16136;DHT22;8173;48.354;9.248;2022-07-05T14:03:42;25.20;79.50
16136;DHT22;8173;48.354;9.248;2022-07-05T14:06:09;25.40;82.20
16136;DHT22;8173;48.354;9.248;2022-07-05T14:08:37;25.30;84.00
16136;DHT22;8173;48.354;9.248;2022-07-05T14:11:04;25.70;77.50
16136;DHT22;8173;48.354;9.248;2022-07-05T14:13:33;25.90;79.70
16136;DHT22;8173;48.354;9.248;2022-07-05T14:16:00;26.60;77.40
16136;DHT22;8173;48.354;9.248;2022-07-05T14:18:27;26.40;76.60
16136;DHT22;8173;48.354;9.248;2022-07-05T14:20:53;26.10;79.00
16136;DHT22;8173;48.354;9.248;2022-07-05T14:23:20;25.90;77.80
16136;DHT22;8173;48.354;9.248;2022-07-05T14:25:48;26.00;76.50
16136;DHT22;8173;48.354;9.248;2022-07-05T14:28:15;26.00;79.20
16136;DHT22;8173;48.354;9.248;2022-07-05T14:30:43;26.40;78.70
16136;DHT22;8173;48.354;9.248;2022-07-05T14:33:11;26.50;77.70
16136;DHT22;8173;48.354;9.248;2022-07-05T14:35:38;26.30;75.10
16136;DHT22;8173;48.354;9.248;2022-07-05T14:38:06;26.10;74.30
16136;DHT22;8173;48.354;9.248;2022-07-05T14:40:33;25.40;75.30
16136;DHT22;8173;48.354;9.248;2022-07-05T14:43:02;25.00;79.00
16136;DHT22;8173;48.354;9.248;2022-07-05T14:45:29;25.70;76.60
16136;DHT22;8173;48.354;9.248;2022-07-05T14:47:56;25.90;78.30
16136;DHT22;8173;48.354;9.248;2022-07-05T14:50:23;26.00;81.40
16136;DHT22;8173;48.354;9.248;2022-07-05T14:52:50;26.30;80.20
16136;DHT22;8173;48.354;9.248;2022-07-05T14:55:17;26.70;80.10
16136;DHT22;8173;48.354;9.248;2022-07-05T14:57:44;26.80;82.00
16136;DHT22;8173;48.354;9.248;2022-07-05T15:00:14;26.50;74.00
16136;DHT22;8173;48.354;9.248;2022-07-05T15:02:42;26.20;74.90
16136;DHT22;8173;48.354;9.248;2022-07-05T15:05:09;26.40;78.90
16136;DHT22;8173;48.354;9.248;2022-07-05T15:07:37;26.30;81.00
16136;DHT22;8173;48.354;9.248;2022-07-05T15:10:05;26.10;78.30
16136;DHT22;8173;48.354;9.248;2022-07-05T15:12:32;25.40;78.10
16136;DHT22;8173;48.354;9.248;2022-07-05T15:17:27;25.30;75.70
16136;DHT22;8173;48.354;9.248;2022-07-05T15:19:54;25.60;79.60
16136;DHT22;8173;48.354;9.248;2022-07-05T15:22:21;25.30;77.90
16136;DHT22;8173;48.354;9.248;2022-07-05T15:24:47;25.10;80.00
16136;DHT22;8173;48.354;9.248;2022-07-05T15:27:14;25.10;78.80
16136;DHT22;8173;48.354;9.248;2022-07-05T15:29:41;24.80;83.90
16136;DHT22;8173;48.354;9.248;2022-07-05T15:32:08;25.10;87.00
16136;DHT22;8173;48.354;9.248;2022-07-05T15:34:36;25.30;81.50
16136;DHT22;8173;48.354;9.248;2022-07-05T15:37:03;25.10;81.20
16136;DHT22;8173;48.354;9.248;2022-07-05T15:39:30;24.70;78.00
16136;DHT22;8173;48.354;9.248;2022-07-05T15:41:58;24.60;79.70
16136;DHT22;8173;48.354;9.248;2022-07-05T15:44:27;24.70;79.10
16136;DHT22;8173;48.354;9.248;2022-07-05T15:46:54;24.90;81.40
16136;DHT22;8173;48.354;9.248;2022-07-05T15:49:29;24.90;81.40
16136;DHT22;8173;48.354;9.248;2022-07-05T15:51:58;24.70;82.50
16136;DHT22;8173;48.354;9.248;2022-07-05T15:54:25;24.40;79.90
16136;DHT22;8173;48.354;9.248;2022-07-05T15:56:52;24.40;83.40
16136;DHT22;8173;48.354;9.248;2022-07-05T15:59:19;24.20;80.10
16136;DHT22;8173;48.354;9.248;2022-07-05T16:01:46;23.80;81.10
16136;DHT22;8173;48.354;9.248;2022-07-05T16:04:13;23.70;85.50
16136;DHT22;8173;48.354;9.248;2022-07-05T16:06:40;23.70;81.00
16136;DHT22;8173;48.354;9.248;2022-07-05T16:09:08;23.90;83.90